sensor_id;sensor_type;location;lat;lon;timestamp;temperature;humidity
12125;DHT22;6126;57.908;16.490;2023-05-29T00:00:21;12.20;57.30
12125;DHT22;6126;57.908;16.490;2023-05-29T00:02:49;12.10;57.20
12125;DHT22;6126;57.908;16.490;2023-05-29T00:05:16;12.20;57.30
12125;DHT22;6126;57.908;16.490;2023-05-29T00:07:43;12.20;57.40
12125;DHT22;6126;57.908;16.490;2023-05-29T00:10:10;12.20;57.40
12125;DHT22;6126;57.908;16.490;2023-05-29T00:12:38;12.30;57.50
12125;DHT22;6126;57.908;16.490;2023-05-29T00:15:05;12.20;57.50
12125;DHT22;6126;57.908;16.490;2023-05-29T00:17:32;12.00;57.40
12125;DHT22;6126;57.908;16.490;2023-05-29T00:19:59;12.10;57.60
12125;DHT22;6126;57.908;16.490;2023-05-29T00:22:27;11.90;57.60
12125;DHT22;6126;57.908;16.490;2023-05-29T00:24:53;11.80;57.70
12125;DHT22;6126;57.908;16.490;2023-05-29T00:27:19;11.80;57.90
12125;DHT22;6126;57.908;16.490;2023-05-29T00:29:46;11.80;58.20
12125;DHT22;6126;57.908;16.490;2023-05-29T00:32:12;11.70;58.30
12125;DHT22;6126;57.908;16.490;2023-05-29T00:34:38;11.60;58.40
12125;DHT22;6126;57.908;16.490;2023-05-29T00:37:04;11.40;58.50
12125;DHT22;6126;57.908;16.490;2023-05-29T00:39:30;11.20;58.50
12125;DHT22;6126;57.908;16.490;2023-05-29T00:41:56;11.10;58.60
12125;DHT22;6126;57.908;16.490;2023-05-29T00:44:22;11.10;58.90
12125;DHT22;6126;57.908;16.490;2023-05-29T00:46:49;11.20;59.80
12125;DHT22;6126;57.908;16.490;2023-05-29T00:49:19;11.10;59.40
12125;DHT22;6126;57.908;16.490;2023-05-29T00:51:48;11.10;59.50
12125;DHT22;6126;57.908;16.490;2023-05-29T00:54:21;10.70;59.40
12125;DHT22;6126;57.908;16.490;2023-05-29T00:56:50;11.00;59.70
12125;DHT22;6126;57.908;16.490;2023-05-29T00:59:16;10.80;60.20
12125;DHT22;6126;57.908;16.490;2023-05-29T01:01:44;10.90;59.70
12125;DHT22;6126;57.908;16.490;2023-05-29T01:04:11;10.60;59.60
12125;DHT22;6126;57.908;16.490;2023-05-29T01:06:38;10.60;59.80
12125;DHT22;6126;57.908;16.490;2023-05-29T01:09:05;10.50;60.00
12125;DHT22;6126;57.908;16.490;2023-05-29T01:11:49;10.60;60.30
12125;DHT22;6126;57.908;16.490;2023-05-29T01:14:33;10.20;60.00
12125;DHT22;6126;57.908;16.490;2023-05-29T01:17:24;10.40;60.30
12125;DHT22;6126;57.908;16.490;2023-05-29T01:23:07;10.10;60.60
12125;DHT22;6126;57.908;16.490;2023-05-29T01:28:47;9.90;62.20
12125;DHT22;6126;57.908;16.490;2023-05-29T01:31:19;9.90;62.30
12125;DHT22;6126;57.908;16.490;2023-05-29T01:33:56;10.00;61.30
12125;DHT22;6126;57.908;16.490;2023-05-29T01:36:23;9.80;62.50
12125;DHT22;6126;57.908;16.490;2023-05-29T01:38:51;10.00;61.60
12125;DHT22;6126;57.908;16.490;2023-05-29T01:41:20;9.90;62.90
12125;DHT22;6126;57.908;16.490;2023-05-29T01:43:49;9.80;63.00
12125;DHT22;6126;57.908;16.490;2023-05-29T01:46:16;9.90;63.20
12125;DHT22;6126;57.908;16.490;2023-05-29T01:48:44;9.90;63.40
12125;DHT22;6126;57.908;16.490;2023-05-29T01:51:12;9.60;63.10
12125;DHT22;6126;57.908;16.490;2023-05-29T01:53:39;9.90;63.50
12125;DHT22;6126;57.908;16.490;2023-05-29T01:56:07;10.00;62.50
12125;DHT22;6126;57.908;16.490;2023-05-29T01:58:34;9.80;63.40
12125;DHT22;6126;57.908;16.490;2023-05-29T02:01:02;9.60;63.30
12125;DHT22;6126;57.908;16.490;2023-05-29T02:03:32;9.70;63.50
12125;DHT22;6126;57.908;16.490;2023-05-29T02:05:59;9.70;63.50
12125;DHT22;6126;57.908;16.490;2023-05-29T02:08:26;9.90;63.80
12125;DHT22;6126;57.908;16.490;2023-05-29T02:10:52;9.80;63.80
12125;DHT22;6126;57.908;16.490;2023-05-29T02:13:18;9.90;63.80
12125;DHT22;6126;57.908;16.490;2023-05-29T02:15:44;10.10;62.90
12125;DHT22;6126;57.908;16.490;2023-05-29T02:18:12;10.00;62.80
12125;DHT22;6126;57.908;16.490;2023-05-29T02:20:39;9.80;63.80
12125;DHT22;6126;57.908;16.490;2023-05-29T02:23:09;9.80;63.80
12125;DHT22;6126;57.908;16.490;2023-05-29T02:25:35;9.90;63.90
12125;DHT22;6126;57.908;16.490;2023-05-29T02:28:02;9.90;64.00
12125;DHT22;6126;57.908;16.490;2023-05-29T02:30:28;10.10;63.20
12125;DHT22;6126;57.908;16.490;2023-05-29T02:32:55;10.00;63.10
12125;DHT22;6126;57.908;16.490;2023-05-29T02:35:21;10.00;63.00
12125;DHT22;6126;57.908;16.490;2023-05-29T02:37:50;9.90;64.10
12125;DHT22;6126;57.908;16.490;2023-05-29T02:40:17;10.20;63.40
12125;DHT22;6126;57.908;16.490;2023-05-29T02:42:44;10.10;63.30
12125;DHT22;6126;57.908;16.490;2023-05-29T02:45:10;9.90;64.30
12125;DHT22;6126;57.908;16.490;2023-05-29T02:47:37;10.20;63.50
12125;DHT22;6126;57.908;16.490;2023-05-29T02:50:03;10.10;63.40
12125;DHT22;6126;57.908;16.490;2023-05-29T02:52:31;10.30;63.50
12125;DHT22;6126;57.908;16.490;2023-05-29T02:54:57;10.30;63.60
12125;DHT22;6126;57.908;16.490;2023-05-29T02:57:24;10.10;63.50
12125;DHT22;6126;57.908;16.490;2023-05-29T02:59:50;10.10;63.60
12125;DHT22;6126;57.908;16.490;2023-05-29T03:02:17;9.90;64.80
12125;DHT22;6126;57.908;16.490;2023-05-29T03:04:44;10.20;64.10
12125;DHT22;6126;57.908;16.490;2023-05-29T03:07:10;10.10;64.00
12125;DHT22;6126;57.908;16.490;2023-05-29T03:09:36;9.70;65.20
12125;DHT22;6126;57.908;16.490;2023-05-29T03:12:02;9.70;65.50
12125;DHT22;6126;57.908;16.490;2023-05-29T03:14:28;9.60;65.60
12125;DHT22;6126;57.908;16.490;2023-05-29T03:16:54;9.60;65.80
12125;DHT22;6126;57.908;16.490;2023-05-29T03:19:21;9.70;66.00
12125;DHT22;6126;57.908;16.490;2023-05-29T03:21:47;9.70;65.90
12125;DHT22;6126;57.908;16.490;2023-05-29T03:24:13;9.70;66.00
12125;DHT22;6126;57.908;16.490;2023-05-29T03:26:39;9.60;65.90
12125;DHT22;6126;57.908;16.490;2023-05-29T03:29:06;9.50;65.80
12125;DHT22;6126;57.908;16.490;2023-05-29T03:31:32;9.50;65.90
12125;DHT22;6126;57.908;16.490;2023-05-29T03:33:59;9.70;66.30
12125;DHT22;6126;57.908;16.490;2023-05-29T03:36:26;9.90;66.50
12125;DHT22;6126;57.908;16.490;2023-05-29T03:38:52;9.60;66.30
12125;DHT22;6126;57.908;16.490;2023-05-29T03:41:18;9.90;66.70
12125;DHT22;6126;57.908;16.490;2023-05-29T03:43:44;9.90;66.40
12125;DHT22;6126;57.908;16.490;2023-05-29T03:46:10;9.90;66.30
12125;DHT22;6126;57.908;16.490;2023-05-29T03:48:36;9.90;66.50
12125;DHT22;6126;57.908;16.490;2023-05-29T03:51:02;9.90;66.50
12125;DHT22;6126;57.908;16.490;2023-05-29T03:53:28;9.90;66.60
12125;DHT22;6126;57.908;16.490;2023-05-29T03:55:54;9.90;66.60
12125;DHT22;6126;57.908;16.490;2023-05-29T03:58:20;10.00;65.50
12125;DHT22;6126;57.908;16.490;2023-05-29T04:00:45;10.10;65.50
12125;DHT22;6126;57.908;16.490;2023-05-29T04:03:12;10.10;65.30
12125;DHT22;6126;57.908;16.490;2023-05-29T04:05:38;10.30;65.30
12125;DHT22;6126;57.908;16.490;2023-05-29T04:08:04;10.30;65.30
12125;DHT22;6126;57.908;16.490;2023-05-29T04:10:30;10.30;65.40
12125;DHT22;6126;57.908;16.490;2023-05-29T04:13:00;10.60;66.00
12125;DHT22;6126;57.908;16.490;2023-05-29T04:15:27;11.50;64.80
12125;DHT22;6126;57.908;16.490;2023-05-29T04:17:54;12.80;62.80
12125;DHT22;6126;57.908;16.490;2023-05-29T04:20:20;14.10;61.00
12125;DHT22;6126;57.908;16.490;2023-05-29T04:22:47;15.80;59.20
12125;DHT22;6126;57.908;16.490;2023-05-29T04:25:13;17.30;57.40
12125;DHT22;6126;57.908;16.490;2023-05-29T04:27:38;18.50;55.50
12125;DHT22;6126;57.908;16.490;2023-05-29T04:30:07;19.70;54.10
12125;DHT22;6126;57.908;16.490;2023-05-29T04:32:33;20.50;52.60
12125;DHT22;6126;57.908;16.490;2023-05-29T04:35:00;21.20;51.50
12125;DHT22;6126;57.908;16.490;2023-05-29T04:37:31;21.70;50.80
12125;DHT22;6126;57.908;16.490;2023-05-29T04:40:07;22.00;50.10
12125;DHT22;6126;57.908;16.490;2023-05-29T04:42:39;21.60;50.30
12125;DHT22;6126;57.908;16.490;2023-05-29T04:45:06;20.90;51.20
12125;DHT22;6126;57.908;16.490;2023-05-29T04:47:32;20.30;52.20
12125;DHT22;6126;57.908;16.490;2023-05-29T04:50:01;19.70;52.90
12125;DHT22;6126;57.908;16.490;2023-05-29T04:52:27;18.80;53.40
12125;DHT22;6126;57.908;16.490;2023-05-29T04:54:54;18.20;54.60
12125;DHT22;6126;57.908;16.490;2023-05-29T04:57:22;17.80;56.30
12125;DHT22;6126;57.908;16.490;2023-05-29T04:59:48;17.30;56.30
12125;DHT22;6126;57.908;16.490;2023-05-29T05:02:14;16.70;56.80
12125;DHT22;6126;57.908;16.490;2023-05-29T05:04:40;16.50;57.20
12125;DHT22;6126;57.908;16.490;2023-05-29T05:07:06;16.30;57.60
12125;DHT22;6126;57.908;16.490;2023-05-29T05:09:32;16.20;57.90
12125;DHT22;6126;57.908;16.490;2023-05-29T05:11:58;15.60;57.90
12125;DHT22;6126;57.908;16.490;2023-05-29T05:14:24;15.40;58.10
12125;DHT22;6126;57.908;16.490;2023-05-29T05:16:50;15.30;58.30
12125;DHT22;6126;57.908;16.490;2023-05-29T05:19:16;15.20;58.20
12125;DHT22;6126;57.908;16.490;2023-05-29T05:21:42;15.10;58.40
12125;DHT22;6126;57.908;16.490;2023-05-29T05:24:08;15.20;58.50
12125;DHT22;6126;57.908;16.490;2023-05-29T05:26:34;15.20;58.60
12125;DHT22;6126;57.908;16.490;2023-05-29T05:29:00;15.30;58.80
12125;DHT22;6126;57.908;16.490;2023-05-29T05:31:26;15.30;58.80
12125;DHT22;6126;57.908;16.490;2023-05-29T05:33:52;15.10;58.60
12125;DHT22;6126;57.908;16.490;2023-05-29T05:36:18;15.10;58.50
12125;DHT22;6126;57.908;16.490;2023-05-29T05:38:45;15.30;58.40
12125;DHT22;6126;57.908;16.490;2023-05-29T05:41:11;15.40;58.40
12125;DHT22;6126;57.908;16.490;2023-05-29T05:43:37;15.50;58.50
12125;DHT22;6126;57.908;16.490;2023-05-29T05:46:03;15.30;58.50
12125;DHT22;6126;57.908;16.490;2023-05-29T05:48:28;15.30;58.60
12125;DHT22;6126;57.908;16.490;2023-05-29T05:50:54;15.20;58.50
12125;DHT22;6126;57.908;16.490;2023-05-29T05:53:20;15.40;58.70
12125;DHT22;6126;57.908;16.490;2023-05-29T05:55:46;15.20;58.60
12125;DHT22;6126;57.908;16.490;2023-05-29T05:58:12;15.40;58.70
12125;DHT22;6126;57.908;16.490;2023-05-29T06:00:39;14.90;58.50
12125;DHT22;6126;57.908;16.490;2023-05-29T06:03:05;15.20;58.80
12125;DHT22;6126;57.908;16.490;2023-05-29T06:05:31;15.00;58.70
12125;DHT22;6126;57.908;16.490;2023-05-29T06:07:59;15.10;58.60
12125;DHT22;6126;57.908;16.490;2023-05-29T06:10:25;15.20;58.50
12125;DHT22;6126;57.908;16.490;2023-05-29T06:12:51;15.00;58.20
12125;DHT22;6126;57.908;16.490;2023-05-29T06:15:17;15.20;58.50
12125;DHT22;6126;57.908;16.490;2023-05-29T06:17:43;14.70;58.30
12125;DHT22;6126;57.908;16.490;2023-05-29T06:20:10;15.10;58.80
12125;DHT22;6126;57.908;16.490;2023-05-29T06:22:39;14.80;58.50
12125;DHT22;6126;57.908;16.490;2023-05-29T06:25:06;14.80;58.40
12125;DHT22;6126;57.908;16.490;2023-05-29T06:27:32;15.20;58.70
12125;DHT22;6126;57.908;16.490;2023-05-29T06:29:58;15.10;58.60
12125;DHT22;6126;57.908;16.490;2023-05-29T06:32:23;15.20;58.70
12125;DHT22;6126;57.908;16.490;2023-05-29T06:34:49;15.30;58.70
12125;DHT22;6126;57.908;16.490;2023-05-29T06:37:15;14.90;58.30
12125;DHT22;6126;57.908;16.490;2023-05-29T06:39:44;15.10;58.40
12125;DHT22;6126;57.908;16.490;2023-05-29T06:42:11;15.20;58.40
12125;DHT22;6126;57.908;16.490;2023-05-29T06:44:37;15.20;58.40
12125;DHT22;6126;57.908;16.490;2023-05-29T06:47:03;15.20;58.60
12125;DHT22;6126;57.908;16.490;2023-05-29T06:49:30;15.00;58.60
12125;DHT22;6126;57.908;16.490;2023-05-29T06:51:56;15.20;58.90
12125;DHT22;6126;57.908;16.490;2023-05-29T06:54:22;15.10;58.90
12125;DHT22;6126;57.908;16.490;2023-05-29T06:56:48;15.10;58.70
12125;DHT22;6126;57.908;16.490;2023-05-29T06:59:14;15.10;58.50
12125;DHT22;6126;57.908;16.490;2023-05-29T07:01:40;15.20;58.70
12125;DHT22;6126;57.908;16.490;2023-05-29T07:04:06;15.20;58.80
12125;DHT22;6126;57.908;16.490;2023-05-29T07:06:32;15.20;58.60
12125;DHT22;6126;57.908;16.490;2023-05-29T07:08:59;15.20;58.60
12125;DHT22;6126;57.908;16.490;2023-05-29T07:11:25;15.30;58.50
12125;DHT22;6126;57.908;16.490;2023-05-29T07:13:53;15.40;58.50
12125;DHT22;6126;57.908;16.490;2023-05-29T07:16:20;15.50;58.50
12125;DHT22;6126;57.908;16.490;2023-05-29T07:18:46;15.50;58.50
12125;DHT22;6126;57.908;16.490;2023-05-29T07:21:12;15.60;58.50
12125;DHT22;6126;57.908;16.490;2023-05-29T07:23:39;15.40;58.10
12125;DHT22;6126;57.908;16.490;2023-05-29T07:26:05;15.50;58.10
12125;DHT22;6126;57.908;16.490;2023-05-29T07:28:31;15.50;58.00
12125;DHT22;6126;57.908;16.490;2023-05-29T07:30:57;15.70;58.10
12125;DHT22;6126;57.908;16.490;2023-05-29T07:33:23;15.70;58.00
12125;DHT22;6126;57.908;16.490;2023-05-29T07:35:49;15.90;58.10
12125;DHT22;6126;57.908;16.490;2023-05-29T07:38:15;15.70;58.00
12125;DHT22;6126;57.908;16.490;2023-05-29T07:40:41;15.70;57.80
12125;DHT22;6126;57.908;16.490;2023-05-29T07:43:07;15.90;57.80
12125;DHT22;6126;57.908;16.490;2023-05-29T07:45:33;16.00;57.50
12125;DHT22;6126;57.908;16.490;2023-05-29T07:47:58;16.30;57.50
12125;DHT22;6126;57.908;16.490;2023-05-29T07:50:24;16.00;57.10
12125;DHT22;6126;57.908;16.490;2023-05-29T07:52:51;16.40;57.10
12125;DHT22;6126;57.908;16.490;2023-05-29T07:55:18;16.50;57.00
12125;DHT22;6126;57.908;16.490;2023-05-29T07:57:43;16.50;56.90
12125;DHT22;6126;57.908;16.490;2023-05-29T08:00:10;16.60;56.60
12125;DHT22;6126;57.908;16.490;2023-05-29T08:02:37;16.60;56.30
12125;DHT22;6126;57.908;16.490;2023-05-29T08:05:04;16.80;56.30
12125;DHT22;6126;57.908;16.490;2023-05-29T08:07:30;17.30;56.40
12125;DHT22;6126;57.908;16.490;2023-05-29T08:09:57;17.10;56.00
12125;DHT22;6126;57.908;16.490;2023-05-29T08:12:23;17.10;55.90
12125;DHT22;6126;57.908;16.490;2023-05-29T08:14:49;17.20;56.10
12125;DHT22;6126;57.908;16.490;2023-05-29T08:17:15;17.00;56.10
12125;DHT22;6126;57.908;16.490;2023-05-29T08:19:40;17.00;55.80
12125;DHT22;6126;57.908;16.490;2023-05-29T08:22:06;17.20;55.70
12125;DHT22;6126;57.908;16.490;2023-05-29T08:24:32;17.30;55.30
12125;DHT22;6126;57.908;16.490;2023-05-29T08:26:58;17.40;54.90
12125;DHT22;6126;57.908;16.490;2023-05-29T08:29:25;17.70;54.90
12125;DHT22;6126;57.908;16.490;2023-05-29T08:31:52;17.90;54.80
12125;DHT22;6126;57.908;16.490;2023-05-29T08:34:18;17.90;54.50
12125;DHT22;6126;57.908;16.490;2023-05-29T08:36:43;18.20;54.50
12125;DHT22;6126;57.908;16.490;2023-05-29T08:39:10;18.20;54.40
12125;DHT22;6126;57.908;16.490;2023-05-29T08:41:55;18.40;54.50
12125;DHT22;6126;57.908;16.490;2023-05-29T08:44:23;17.90;54.00
12125;DHT22;6126;57.908;16.490;2023-05-29T08:46:55;18.10;54.30
12125;DHT22;6126;57.908;16.490;2023-05-29T08:49:21;18.20;54.20
12125;DHT22;6126;57.908;16.490;2023-05-29T08:51:49;18.40;54.10
12125;DHT22;6126;57.908;16.490;2023-05-29T08:54:23;18.80;54.00
12125;DHT22;6126;57.908;16.490;2023-05-29T08:56:50;18.50;53.40
12125;DHT22;6126;57.908;16.490;2023-05-29T08:59:16;18.70;53.40
12125;DHT22;6126;57.908;16.490;2023-05-29T09:01:43;18.90;53.30
12125;DHT22;6126;57.908;16.490;2023-05-29T09:04:09;18.60;53.60
12125;DHT22;6126;57.908;16.490;2023-05-29T09:06:36;18.90;53.60
12125;DHT22;6126;57.908;16.490;2023-05-29T09:09:02;18.70;53.70
12125;DHT22;6126;57.908;16.490;2023-05-29T09:11:31;18.70;53.40
12125;DHT22;6126;57.908;16.490;2023-05-29T09:13:58;18.70;53.10
12125;DHT22;6126;57.908;16.490;2023-05-29T09:16:25;18.80;53.00
12125;DHT22;6126;57.908;16.490;2023-05-29T09:18:50;19.00;53.00
12125;DHT22;6126;57.908;16.490;2023-05-29T09:21:34;19.00;52.80
12125;DHT22;6126;57.908;16.490;2023-05-29T09:24:04;19.10;52.80
12125;DHT22;6126;57.908;16.490;2023-05-29T09:26:31;18.90;52.60
12125;DHT22;6126;57.908;16.490;2023-05-29T09:28:58;19.10;52.70
12125;DHT22;6126;57.908;16.490;2023-05-29T09:31:24;19.10;52.60
12125;DHT22;6126;57.908;16.490;2023-05-29T09:33:50;19.30;52.70
12125;DHT22;6126;57.908;16.490;2023-05-29T09:36:22;19.30;52.50
12125;DHT22;6126;57.908;16.490;2023-05-29T09:38:49;19.40;52.30
12125;DHT22;6126;57.908;16.490;2023-05-29T09:41:22;19.50;52.20
12125;DHT22;6126;57.908;16.490;2023-05-29T09:43:49;19.30;51.90
12125;DHT22;6126;57.908;16.490;2023-05-29T09:46:16;19.60;52.00
12125;DHT22;6126;57.908;16.490;2023-05-29T09:48:46;19.50;51.80
12125;DHT22;6126;57.908;16.490;2023-05-29T09:51:22;19.40;52.00
12125;DHT22;6126;57.908;16.490;2023-05-29T09:53:49;19.30;52.10
12125;DHT22;6126;57.908;16.490;2023-05-29T09:56:17;19.50;52.10
12125;DHT22;6126;57.908;16.490;2023-05-29T09:58:44;19.10;51.50
12125;DHT22;6126;57.908;16.490;2023-05-29T10:01:13;19.50;51.80
12125;DHT22;6126;57.908;16.490;2023-05-29T10:03:43;19.20;51.60
12125;DHT22;6126;57.908;16.490;2023-05-29T10:06:16;19.20;51.70
12125;DHT22;6126;57.908;16.490;2023-05-29T10:08:46;19.40;51.80
12125;DHT22;6126;57.908;16.490;2023-05-29T10:11:21;19.50;51.60
12125;DHT22;6126;57.908;16.490;2023-05-29T10:13:52;19.50;51.50
12125;DHT22;6126;57.908;16.490;2023-05-29T10:16:22;19.60;51.50
12125;DHT22;6126;57.908;16.490;2023-05-29T10:18:56;19.70;51.40
12125;DHT22;6126;57.908;16.490;2023-05-29T10:21:26;19.80;51.40
12125;DHT22;6126;57.908;16.490;2023-05-29T10:23:54;19.70;51.20
12125;DHT22;6126;57.908;16.490;2023-05-29T10:26:25;19.80;51.10
12125;DHT22;6126;57.908;16.490;2023-05-29T10:36:01;19.70;51.20
12125;DHT22;6126;57.908;16.490;2023-05-29T10:38:12;19.60;51.30
12125;DHT22;6126;57.908;16.490;2023-05-29T10:40:42;19.50;51.40
12125;DHT22;6126;57.908;16.490;2023-05-29T10:43:09;19.50;52.00
12125;DHT22;6126;57.908;16.490;2023-05-29T10:45:57;19.50;51.40
12125;DHT22;6126;57.908;16.490;2023-05-29T10:50:54;19.20;51.10
12125;DHT22;6126;57.908;16.490;2023-05-29T10:53:26;19.70;51.30
12125;DHT22;6126;57.908;16.490;2023-05-29T10:55:56;19.60;51.30
12125;DHT22;6126;57.908;16.490;2023-05-29T10:58:26;19.60;51.50
12125;DHT22;6126;57.908;16.490;2023-05-29T11:00:54;19.50;51.60
12125;DHT22;6126;57.908;16.490;2023-05-29T11:03:23;19.40;51.70
12125;DHT22;6126;57.908;16.490;2023-05-29T11:15:04;19.10;52.40
12125;DHT22;6126;57.908;16.490;2023-05-29T11:17:51;18.90;52.30
12125;DHT22;6126;57.908;16.490;2023-05-29T11:25:25;19.00;52.70
12125;DHT22;6126;57.908;16.490;2023-05-29T11:27:52;19.00;52.60
12125;DHT22;6126;57.908;16.490;2023-05-29T11:30:19;19.00;52.60
12125;DHT22;6126;57.908;16.490;2023-05-29T11:32:46;19.00;52.50
12125;DHT22;6126;57.908;16.490;2023-05-29T11:35:13;19.30;52.60
12125;DHT22;6126;57.908;16.490;2023-05-29T11:37:41;19.20;52.20
12125;DHT22;6126;57.908;16.490;2023-05-29T11:40:11;19.40;52.20
12125;DHT22;6126;57.908;16.490;2023-05-29T11:42:45;19.40;52.10
12125;DHT22;6126;57.908;16.490;2023-05-29T11:50:24;19.10;52.10
12125;DHT22;6126;57.908;16.490;2023-05-29T11:52:51;19.10;52.30
12125;DHT22;6126;57.908;16.490;2023-05-29T11:55:19;19.00;52.30
12125;DHT22;6126;57.908;16.490;2023-05-29T11:57:50;19.10;52.60
12125;DHT22;6126;57.908;16.490;2023-05-29T12:00:18;19.10;52.80
12125;DHT22;6126;57.908;16.490;2023-05-29T12:02:45;18.90;52.90
12125;DHT22;6126;57.908;16.490;2023-05-29T12:05:16;18.80;52.90
12125;DHT22;6126;57.908;16.490;2023-05-29T12:07:54;18.80;53.20
12125;DHT22;6126;57.908;16.490;2023-05-29T12:10:23;18.80;53.40
12125;DHT22;6126;57.908;16.490;2023-05-29T12:12:55;18.50;53.40
12125;DHT22;6126;57.908;16.490;2023-05-29T12:15:22;18.70;53.70
12125;DHT22;6126;57.908;16.490;2023-05-29T12:17:52;18.40;53.50
12125;DHT22;6126;57.908;16.490;2023-05-29T12:20:19;18.40;53.70
12125;DHT22;6126;57.908;16.490;2023-05-29T12:22:48;18.20;53.80
12125;DHT22;6126;57.908;16.490;2023-05-29T12:25:19;18.30;54.20
12125;DHT22;6126;57.908;16.490;2023-05-29T12:27:47;18.10;54.30
12125;DHT22;6126;57.908;16.490;2023-05-29T12:30:20;18.10;54.50
12125;DHT22;6126;57.908;16.490;2023-05-29T12:32:48;17.80;54.40
12125;DHT22;6126;57.908;16.490;2023-05-29T12:35:21;18.00;54.80
12125;DHT22;6126;57.908;16.490;2023-05-29T12:40:23;17.80;55.20
12125;DHT22;6126;57.908;16.490;2023-05-29T12:43:00;17.50;55.40
12125;DHT22;6126;57.908;16.490;2023-05-29T12:45:29;17.20;55.20
12125;DHT22;6126;57.908;16.490;2023-05-29T12:47:58;17.60;55.50
12125;DHT22;6126;57.908;16.490;2023-05-29T12:50:33;17.30;55.50
12125;DHT22;6126;57.908;16.490;2023-05-29T12:53:07;17.50;55.70
12125;DHT22;6126;57.908;16.490;2023-05-29T12:55:36;17.40;55.70
12125;DHT22;6126;57.908;16.490;2023-05-29T12:58:13;17.10;55.70
12125;DHT22;6126;57.908;16.490;2023-05-29T13:00:44;16.90;56.00
12125;DHT22;6126;57.908;16.490;2023-05-29T13:03:13;17.10;56.40
12125;DHT22;6126;57.908;16.490;2023-05-29T13:05:40;17.10;56.50
12125;DHT22;6126;57.908;16.490;2023-05-29T13:08:06;16.90;56.40
12125;DHT22;6126;57.908;16.490;2023-05-29T13:10:35;17.10;56.70
12125;DHT22;6126;57.908;16.490;2023-05-29T13:13:01;16.90;56.60
12125;DHT22;6126;57.908;16.490;2023-05-29T13:15:28;16.90;56.70
12125;DHT22;6126;57.908;16.490;2023-05-29T13:17:54;16.70;56.70
12125;DHT22;6126;57.908;16.490;2023-05-29T13:20:20;16.80;56.80
12125;DHT22;6126;57.908;16.490;2023-05-29T13:22:47;16.80;56.80
12125;DHT22;6126;57.908;16.490;2023-05-29T13:25:15;17.00;56.90
12125;DHT22;6126;57.908;16.490;2023-05-29T13:27:44;16.80;56.70
12125;DHT22;6126;57.908;16.490;2023-05-29T13:30:12;17.00;56.90
12125;DHT22;6126;57.908;16.490;2023-05-29T13:32:40;16.90;56.80
12125;DHT22;6126;57.908;16.490;2023-05-29T13:35:06;16.90;57.00
12125;DHT22;6126;57.908;16.490;2023-05-29T13:37:32;17.00;57.10
12125;DHT22;6126;57.908;16.490;2023-05-29T13:39:59;16.80;57.20
12125;DHT22;6126;57.908;16.490;2023-05-29T13:42:25;17.00;57.50
12125;DHT22;6126;57.908;16.490;2023-05-29T13:44:52;16.60;57.40
12125;DHT22;6126;57.908;16.490;2023-05-29T13:47:18;16.50;57.40
12125;DHT22;6126;57.908;16.490;2023-05-29T13:49:44;16.60;57.60
12125;DHT22;6126;57.908;16.490;2023-05-29T13:52:10;16.80;58.40
12125;DHT22;6126;57.908;16.490;2023-05-29T13:54:36;16.60;57.60
12125;DHT22;6126;57.908;16.490;2023-05-29T13:57:03;16.70;57.60
12125;DHT22;6126;57.908;16.490;2023-05-29T13:59:30;16.70;57.60
12125;DHT22;6126;57.908;16.490;2023-05-29T14:02:00;17.00;57.90
12125;DHT22;6126;57.908;16.490;2023-05-29T14:04:29;16.70;57.80
12125;DHT22;6126;57.908;16.490;2023-05-29T14:06:56;16.60;57.80
12125;DHT22;6126;57.908;16.490;2023-05-29T14:09:23;16.50;57.80
12125;DHT22;6126;57.908;16.490;2023-05-29T14:11:55;16.80;58.20
12125;DHT22;6126;57.908;16.490;2023-05-29T14:14:23;16.80;58.20
12125;DHT22;6126;57.908;16.490;2023-05-29T14:16:49;16.50;58.10
12125;DHT22;6126;57.908;16.490;2023-05-29T14:19:17;16.60;58.40
12125;DHT22;6126;57.908;16.490;2023-05-29T14:21:44;16.50;58.40
12125;DHT22;6126;57.908;16.490;2023-05-29T14:24:10;16.30;58.20
12125;DHT22;6126;57.908;16.490;2023-05-29T14:26:36;16.90;58.60
12125;DHT22;6126;57.908;16.490;2023-05-29T14:29:03;16.80;58.50
12125;DHT22;6126;57.908;16.490;2023-05-29T14:31:29;16.70;58.30
12125;DHT22;6126;57.908;16.490;2023-05-29T14:33:55;16.50;58.30
12125;DHT22;6126;57.908;16.490;2023-05-29T14:36:21;16.80;58.50
12125;DHT22;6126;57.908;16.490;2023-05-29T14:38:47;16.70;58.50
12125;DHT22;6126;57.908;16.490;2023-05-29T14:41:15;16.70;58.60
12125;DHT22;6126;57.908;16.490;2023-05-29T14:43:42;16.50;58.50
12125;DHT22;6126;57.908;16.490;2023-05-29T14:46:08;16.60;58.60
12125;DHT22;6126;57.908;16.490;2023-05-29T14:48:34;16.40;58.50
12125;DHT22;6126;57.908;16.490;2023-05-29T14:51:01;16.60;58.70
12125;DHT22;6126;57.908;16.490;2023-05-29T14:53:27;16.60;58.90
12125;DHT22;6126;57.908;16.490;2023-05-29T14:55:53;16.60;58.50
12125;DHT22;6126;57.908;16.490;2023-05-29T14:58:21;16.90;58.70
12125;DHT22;6126;57.908;16.490;2023-05-29T15:00:47;16.80;58.50
12125;DHT22;6126;57.908;16.490;2023-05-29T15:03:13;16.70;58.50
12125;DHT22;6126;57.908;16.490;2023-05-29T15:05:39;16.60;58.60
12125;DHT22;6126;57.908;16.490;2023-05-29T15:08:05;16.30;58.60
12125;DHT22;6126;57.908;16.490;2023-05-29T15:10:31;16.40;58.90
12125;DHT22;6126;57.908;16.490;2023-05-29T15:12:58;16.20;58.90
12125;DHT22;6126;57.908;16.490;2023-05-29T15:15:24;16.30;59.20
12125;DHT22;6126;57.908;16.490;2023-05-29T15:17:54;16.20;59.10
12125;DHT22;6126;57.908;16.490;2023-05-29T15:20:24;16.50;59.30
12125;DHT22;6126;57.908;16.490;2023-05-29T15:22:52;16.30;59.20
12125;DHT22;6126;57.908;16.490;2023-05-29T15:25:20;16.60;59.50
12125;DHT22;6126;57.908;16.490;2023-05-29T15:27:47;16.60;59.60
12125;DHT22;6126;57.908;16.490;2023-05-29T15:30:18;16.30;59.30
12125;DHT22;6126;57.908;16.490;2023-05-29T15:32:45;16.50;59.50
12125;DHT22;6126;57.908;16.490;2023-05-29T15:35:14;16.30;59.40
12125;DHT22;6126;57.908;16.490;2023-05-29T15:37:42;16.20;59.40
12125;DHT22;6126;57.908;16.490;2023-05-29T15:40:09;16.40;59.40
12125;DHT22;6126;57.908;16.490;2023-05-29T15:42:36;16.70;59.60
12125;DHT22;6126;57.908;16.490;2023-05-29T15:45:05;16.60;59.50
12125;DHT22;6126;57.908;16.490;2023-05-29T15:47:31;16.40;59.30
12125;DHT22;6126;57.908;16.490;2023-05-29T15:49:58;16.50;59.50
12125;DHT22;6126;57.908;16.490;2023-05-29T15:52:26;16.40;59.50
12125;DHT22;6126;57.908;16.490;2023-05-29T15:54:52;16.50;59.60
12125;DHT22;6126;57.908;16.490;2023-05-29T15:57:18;16.70;59.80
12125;DHT22;6126;57.908;16.490;2023-05-29T15:59:44;16.50;59.60
12125;DHT22;6126;57.908;16.490;2023-05-29T16:02:10;16.50;59.60
12125;DHT22;6126;57.908;16.490;2023-05-29T16:04:36;16.60;59.60
12125;DHT22;6126;57.908;16.490;2023-05-29T16:07:02;16.40;59.50
12125;DHT22;6126;57.908;16.490;2023-05-29T16:09:28;16.60;59.70
12125;DHT22;6126;57.908;16.490;2023-05-29T16:11:54;16.50;59.60